YSCBYMER

Guest
Details From YSCB - Canberra
To YMER - Merimbula
Flight Number -
Tags decoded
Created
Modified
Stats Distance 102 nm / 189 km
Max Altitude 0 ft / 0 m
Waypoints 2
Social Downloads 0
Likes 0
Share VATSIM

Download

Looking for another format? Having issues loading an existing format? Contact us
Advertisement - Login to hide

Notes

Requested: YSCB YMER

Route

YSCB YMER

ID Type Via Altitude Latitude Longitude Leg Dist Tot Dist Heading (true) Name
O YSCB APT - 0 ft / 0 m -35.30548˚ 149.19334˚ - 0 nm - Canberra
O YMER APT - 0 ft / 0 m -36.90688˚ 149.90163˚ 102 nm 102 nm 161° / 160° Merimbula

Altitude Profile

Advertisement - Login to hide

YSCB

Details ICAO YSCB (CBR)
Name Canberra
Region Australia
Timezone Australia/Sydney (UTC+11.0)
Stats Elevation 1,887 ft / 575 m (AMSL)
Location -35.305478° 149.193342°
Runways 2
Magnetic Variation 12.402° E

METAR

YSCB 172130Z 08004KT 9999 FEW035 SCT185 BKN210 20/15 Q1016 NOSIG

Decode

TAF

TAF AMD YSCB 171933Z 1719/1818 10006KT 9999 FEW020 FM172200 34008KT 9999 FEW030 FM180200 28012KT 9999 -SHRA SCT045 FM180900 11005KT 9999 FEW020 PROB30 INTER 1803/1809 VRB20G35KT 3000 TSRA SCT020 SCT040CB

Decode

Departure Runways

ID Width Length Bearing (true) Bearing (mag) Surface Threshold Offset Overrun Length
12 148 ft / 45 m 5,508 ft / 1,679 m 130.00° 117.60° Asphalt 0 ft / 0 m 0 ft / 0 m
17 148 ft / 45 m 10,793 ft / 3,290 m 180.00° 167.60° Asphalt 0 ft / 0 m 0 ft / 0 m
30 148 ft / 45 m 5,508 ft / 1,679 m 310.00° 297.60° Asphalt 226 ft / 69 m 0 ft / 0 m
35 148 ft / 45 m 10,793 ft / 3,290 m 0.00° 347.60° Asphalt 1,998 ft / 609 m 0 ft / 0 m

YMER

Details ICAO YMER (MIM)
Name Merimbula
Region Australia
Timezone Australia/Sydney (UTC+11.0)
Stats Elevation 6 ft / 2 m (AMSL)
Location -36.906875° 149.901626°
Runways 1
Magnetic Variation 13.324° E

METAR

YMER 172130Z AUTO 35005KT 9999 // BKN012 22/18 Q1012

Decode

TAF

Not found

Destination Runways

ID Width Length Bearing (true) Bearing (mag) Surface Threshold Offset Overrun Length
03 98 ft / 30 m 5,252 ft / 1,601 m 33.80° 20.48° Asphalt 0 ft / 0 m 0 ft / 0 m
21 98 ft / 30 m 5,252 ft / 1,601 m 213.80° 200.48° Asphalt 0 ft / 0 m 0 ft / 0 m

Popular Alternatives